createdAt,value
2017-12-16T00:00:29.554Z,4.00
2017-12-16T00:01:29.519Z,8.00
2017-12-16T00:02:29.535Z,8.00
2017-12-16T00:03:29.551Z,8.00
2017-12-16T00:04:29.566Z,8.00
2017-12-16T00:05:29.582Z,4.00
2017-12-16T00:06:29.597Z,8.00
2017-12-16T00:07:29.613Z,4.00
2017-12-16T00:08:29.628Z,4.00
2017-12-16T00:09:29.644Z,4.00
2017-12-16T00:10:29.658Z,4.00
2017-12-16T00:11:29.681Z,8.00
2017-12-16T00:12:29.689Z,8.00
2017-12-16T00:13:29.707Z,8.00
2017-12-16T00:14:29.721Z,4.00
2017-12-16T00:15:29.736Z,4.00
2017-12-16T00:16:29.752Z,4.00
2017-12-16T00:17:29.766Z,8.00
2017-12-16T00:18:29.781Z,8.00
2017-12-16T00:19:29.798Z,4.00
2017-12-16T00:20:29.814Z,4.00
2017-12-16T00:21:29.827Z,4.00
2017-12-16T00:22:29.844Z,4.00
2017-12-16T00:23:29.859Z,4.00
2017-12-16T00:24:29.873Z,4.00
2017-12-16T00:25:29.888Z,4.00
2017-12-16T00:26:29.905Z,8.00
2017-12-16T00:27:29.920Z,4.00
2017-12-16T00:28:29.935Z,4.00
2017-12-16T00:29:29.951Z,4.00
2017-12-16T00:30:29.966Z,8.00
2017-12-16T00:31:29.982Z,8.00
2017-12-16T00:32:29.995Z,8.00
2017-12-16T00:33:30.020Z,4.00
2017-12-16T00:34:30.026Z,4.00
2017-12-16T00:35:30.049Z,8.00
2017-12-16T00:36:30.057Z,4.00
2017-12-16T00:37:30.072Z,8.00
2017-12-16T00:38:30.139Z,8.00
2017-12-16T00:39:30.103Z,8.00
2017-12-16T00:40:30.118Z,8.00
2017-12-16T00:41:30.134Z,8.00
2017-12-16T00:42:30.150Z,8.00
2017-12-16T00:43:30.167Z,4.00
2017-12-16T00:44:30.181Z,8.00
2017-12-16T00:45:30.196Z,4.00
2017-12-16T00:46:30.211Z,4.00
2017-12-16T00:47:30.226Z,8.00
2017-12-16T00:48:30.241Z,4.00
2017-12-16T00:49:30.257Z,4.00
2017-12-16T00:50:30.273Z,8.00
2017-12-16T00:51:30.288Z,4.00
2017-12-16T00:52:30.311Z,4.00
2017-12-16T00:53:30.320Z,8.00
2017-12-16T00:54:30.335Z,4.00
2017-12-16T00:55:30.350Z,8.00
2017-12-16T00:56:30.366Z,8.00
2017-12-16T00:57:30.381Z,8.00
2017-12-16T00:58:30.396Z,8.00
2017-12-16T00:59:30.413Z,4.00
2017-12-16T01:00:30.426Z,8.00
2017-12-16T01:01:30.443Z,8.00
2017-12-16T01:02:30.457Z,8.00
2017-12-16T01:03:30.474Z,8.00
2017-12-16T01:04:30.489Z,8.00
2017-12-16T01:05:30.507Z,8.00
2017-12-16T01:06:30.521Z,4.00
2017-12-16T01:07:30.536Z,8.00
2017-12-16T01:08:30.552Z,4.00
2017-12-16T01:09:30.566Z,8.00
2017-12-16T01:10:30.580Z,4.00
2017-12-16T01:11:30.596Z,8.00
2017-12-16T01:12:30.612Z,8.00
2017-12-16T01:13:30.628Z,8.00
2017-12-16T01:14:30.643Z,8.00
2017-12-16T01:15:30.658Z,4.00
2017-12-16T01:16:30.674Z,8.00
2017-12-16T01:17:30.689Z,8.00
2017-12-16T01:18:30.705Z,4.00
2017-12-16T01:19:30.720Z,8.00
2017-12-16T01:20:30.735Z,4.00
2017-12-16T01:21:30.751Z,8.00
2017-12-16T01:22:30.766Z,8.00
2017-12-16T01:23:30.782Z,8.00
2017-12-16T01:24:30.797Z,4.00
2017-12-16T01:25:30.812Z,8.00
2017-12-16T01:26:30.827Z,8.00
2017-12-16T01:27:30.843Z,8.00
2017-12-16T01:28:30.859Z,8.00
2017-12-16T01:29:30.874Z,8.00
2017-12-16T01:30:30.890Z,4.00
2017-12-16T01:31:30.906Z,8.00
2017-12-16T01:32:30.920Z,8.00
2017-12-16T01:33:30.935Z,4.00
2017-12-16T01:34:30.951Z,8.00
2017-12-16T01:35:30.967Z,8.00
2017-12-16T01:36:30.981Z,8.00
2017-12-16T01:37:30.998Z,8.00
2017-12-16T01:38:31.013Z,8.00
2017-12-16T01:39:31.029Z,8.00
2017-12-16T01:40:31.043Z,8.00
2017-12-16T01:41:31.058Z,4.00
2017-12-16T01:42:31.074Z,8.00
2017-12-16T01:43:31.091Z,8.00
2017-12-16T01:44:31.105Z,4.00
2017-12-16T01:45:31.121Z,8.00
2017-12-16T01:46:31.136Z,8.00
2017-12-16T01:47:31.153Z,8.00
2017-12-16T01:48:31.168Z,8.00
2017-12-16T01:49:31.185Z,8.00
2017-12-16T01:50:31.200Z,8.00
2017-12-16T01:51:31.216Z,8.00
2017-12-16T01:52:31.230Z,8.00
2017-12-16T01:53:31.245Z,8.00
2017-12-16T01:54:31.261Z,8.00
2017-12-16T01:55:31.277Z,8.00
2017-12-16T01:56:31.292Z,8.00
2017-12-16T01:57:31.308Z,8.00
2017-12-16T01:58:31.323Z,8.00
2017-12-16T01:59:31.338Z,8.00
2017-12-16T02:00:31.353Z,8.00
2017-12-16T02:01:31.370Z,8.00
2017-12-16T02:02:31.384Z,8.00
2017-12-16T02:03:31.399Z,4.00
2017-12-16T02:04:31.415Z,8.00
2017-12-16T02:05:31.437Z,8.00
2017-12-16T02:06:31.446Z,8.00
2017-12-16T02:07:31.461Z,4.00
2017-12-16T02:08:31.477Z,8.00
2017-12-16T02:09:31.492Z,8.00
2017-12-16T02:10:31.508Z,8.00
2017-12-16T02:11:31.522Z,8.00
2017-12-16T02:12:31.538Z,8.00
2017-12-16T02:13:31.555Z,8.00
2017-12-16T02:14:31.571Z,8.00
2017-12-16T02:15:31.585Z,8.00
2017-12-16T02:16:31.600Z,8.00
2017-12-16T02:17:31.615Z,8.00
2017-12-16T02:18:31.630Z,8.00
2017-12-16T02:19:31.712Z,8.00
2017-12-16T02:20:31.664Z,8.00
2017-12-16T02:21:31.677Z,8.00
2017-12-16T02:22:31.699Z,8.00
2017-12-16T02:23:31.722Z,8.00
2017-12-16T02:24:31.723Z,8.00
2017-12-16T02:25:31.740Z,8.00
2017-12-16T02:26:31.754Z,8.00
2017-12-16T02:27:31.771Z,8.00
2017-12-16T02:28:31.785Z,8.00
2017-12-16T02:29:31.800Z,8.00
2017-12-16T02:30:31.818Z,8.00
2017-12-16T02:31:31.834Z,8.00
2017-12-16T02:32:31.847Z,8.00
2017-12-16T02:33:31.862Z,8.00
2017-12-16T02:34:31.880Z,8.00
2017-12-16T02:35:31.894Z,4.00
2017-12-16T02:36:31.958Z,8.00
2017-12-16T02:37:31.928Z,8.00
2017-12-16T02:38:31.941Z,8.00
2017-12-16T02:39:31.957Z,8.00
2017-12-16T02:40:31.979Z,8.00
2017-12-16T02:41:31.988Z,8.00
2017-12-16T02:42:32.003Z,8.00
2017-12-16T02:43:32.018Z,8.00
2017-12-16T02:44:32.034Z,8.00
2017-12-16T02:45:32.050Z,8.00
2017-12-16T02:46:32.065Z,8.00
2017-12-16T02:47:32.081Z,4.00
2017-12-16T02:48:32.095Z,4.00
2017-12-16T02:49:32.111Z,8.00
2017-12-16T02:50:32.128Z,4.00
2017-12-16T02:51:32.144Z,8.00
2017-12-16T02:52:32.159Z,4.00
2017-12-16T02:53:32.174Z,8.00
2017-12-16T02:54:32.239Z,8.00
2017-12-16T02:55:32.206Z,8.00
2017-12-16T02:56:32.219Z,4.00
2017-12-16T02:57:32.235Z,4.00
2017-12-16T02:58:32.251Z,4.00
2017-12-16T02:59:32.268Z,4.00
2017-12-16T03:00:32.285Z,4.00
2017-12-16T03:01:32.298Z,8.00
2017-12-16T03:02:32.313Z,8.00
2017-12-16T03:03:32.330Z,8.00
2017-12-16T03:04:32.344Z,8.00
2017-12-16T03:05:32.360Z,8.00
2017-12-16T03:06:32.394Z,8.00
2017-12-16T03:07:32.391Z,4.00
2017-12-16T03:08:32.406Z,8.00
2017-12-16T03:09:32.422Z,4.00
2017-12-16T03:10:32.437Z,8.00
2017-12-16T03:11:32.454Z,8.00
2017-12-16T03:12:32.467Z,4.00
2017-12-16T03:13:32.484Z,4.00
2017-12-16T03:14:32.549Z,4.00
2017-12-16T03:15:32.515Z,4.00
2017-12-16T03:16:32.530Z,4.00
2017-12-16T03:17:32.545Z,8.00
2017-12-16T03:18:32.560Z,8.00
2017-12-16T03:19:32.576Z,4.00
2017-12-16T03:20:32.597Z,4.00
2017-12-16T03:21:32.606Z,4.00
2017-12-16T03:22:32.622Z,4.00
2017-12-16T03:23:32.639Z,4.00
2017-12-16T03:24:32.652Z,4.00
2017-12-16T03:25:32.667Z,4.00
2017-12-16T03:26:32.683Z,8.00
2017-12-16T03:27:32.699Z,4.00
2017-12-16T03:28:32.714Z,8.00
2017-12-16T03:29:32.730Z,8.00
2017-12-16T03:30:32.746Z,8.00
2017-12-16T03:31:32.760Z,8.00
2017-12-16T03:32:32.775Z,8.00
2017-12-16T03:33:32.789Z,8.00
2017-12-16T03:34:32.805Z,8.00
2017-12-16T03:35:32.822Z,4.00
2017-12-16T03:36:32.835Z,8.00
2017-12-16T03:37:32.852Z,4.00
2017-12-16T03:38:32.867Z,4.00
2017-12-16T03:39:32.883Z,4.00
2017-12-16T03:40:32.949Z,4.00
2017-12-16T03:41:32.911Z,8.00
2017-12-16T03:42:32.928Z,4.00
2017-12-16T03:43:32.944Z,8.00
2017-12-16T03:44:32.958Z,8.00
2017-12-16T03:45:32.974Z,8.00
2017-12-16T03:46:32.990Z,8.00
2017-12-16T03:47:33.005Z,8.00
2017-12-16T03:48:33.018Z,8.00
2017-12-16T03:49:33.034Z,4.00
2017-12-16T03:50:33.050Z,4.00
2017-12-16T03:51:33.064Z,8.00
2017-12-16T03:52:33.080Z,8.00
2017-12-16T03:53:33.095Z,8.00
2017-12-16T03:54:33.112Z,8.00
2017-12-16T03:55:33.125Z,8.00
2017-12-16T03:56:33.140Z,8.00
2017-12-16T03:57:33.164Z,4.00
2017-12-16T03:58:33.171Z,4.00
2017-12-16T03:59:33.187Z,4.00
2017-12-16T04:00:33.201Z,4.00
2017-12-16T04:01:33.218Z,4.00
2017-12-16T04:02:33.234Z,4.00
2017-12-16T04:03:33.248Z,4.00
2017-12-16T04:04:33.262Z,4.00
2017-12-16T04:05:33.278Z,4.00
2017-12-16T04:06:33.294Z,8.00
2017-12-16T04:07:33.310Z,8.00
2017-12-16T04:08:33.324Z,8.00
2017-12-16T04:09:33.339Z,4.00
2017-12-16T04:10:33.356Z,4.00
2017-12-16T04:11:33.371Z,8.00
2017-12-16T04:12:33.385Z,8.00
2017-12-16T04:13:33.405Z,4.00
2017-12-16T04:14:33.416Z,4.00
2017-12-16T04:15:33.482Z,4.00
2017-12-16T04:16:33.446Z,8.00
2017-12-16T04:17:33.461Z,8.00
2017-12-16T04:18:33.477Z,8.00
2017-12-16T04:19:33.493Z,4.00
2017-12-16T04:20:33.506Z,4.00
2017-12-16T04:21:33.523Z,4.00
2017-12-16T04:22:33.539Z,4.00
2017-12-16T04:23:33.554Z,8.00
2017-12-16T04:24:33.568Z,4.00
2017-12-16T04:25:33.583Z,4.00
2017-12-16T04:26:33.599Z,8.00
2017-12-16T04:27:33.614Z,4.00
2017-12-16T04:28:33.630Z,4.00
2017-12-16T04:29:33.644Z,4.00
2017-12-16T04:30:33.660Z,8.00
2017-12-16T04:31:33.677Z,8.00
2017-12-16T04:32:33.691Z,8.00
2017-12-16T04:33:33.706Z,4.00
2017-12-16T04:34:33.722Z,4.00
2017-12-16T04:35:33.741Z,4.00
2017-12-16T04:36:33.753Z,4.00
2017-12-16T04:37:33.767Z,4.00
2017-12-16T04:38:33.783Z,4.00
2017-12-16T04:39:33.799Z,8.00
2017-12-16T04:40:33.814Z,8.00
2017-12-16T04:41:33.830Z,4.00
2017-12-16T04:42:33.845Z,4.00
2017-12-16T04:43:33.861Z,4.00
2017-12-16T04:44:33.876Z,4.00
2017-12-16T04:45:33.891Z,8.00
2017-12-16T04:46:33.906Z,8.00
2017-12-16T04:47:33.921Z,4.00
2017-12-16T04:48:33.937Z,4.00
2017-12-16T04:49:33.953Z,8.00
2017-12-16T04:50:33.968Z,4.00
2017-12-16T04:51:33.983Z,4.00
2017-12-16T04:52:33.999Z,4.00
2017-12-16T04:53:34.013Z,4.00
2017-12-16T04:54:34.029Z,4.00
2017-12-16T04:55:34.045Z,4.00
2017-12-16T04:56:34.059Z,8.00
2017-12-16T04:57:34.077Z,4.00
2017-12-16T04:58:34.090Z,4.00
2017-12-16T04:59:34.106Z,4.00
2017-12-16T05:00:34.122Z,4.00
2017-12-16T05:01:34.138Z,4.00
2017-12-16T05:02:34.154Z,4.00
2017-12-16T05:03:34.169Z,4.00
2017-12-16T05:04:34.184Z,4.00
2017-12-16T05:05:34.198Z,4.00
2017-12-16T05:06:34.216Z,4.00
2017-12-16T05:07:34.230Z,4.00
2017-12-16T05:08:34.245Z,4.00
2017-12-16T05:09:34.260Z,4.00
2017-12-16T05:10:34.275Z,4.00
2017-12-16T05:11:34.292Z,4.00
2017-12-16T05:12:34.305Z,4.00
2017-12-16T05:13:34.321Z,4.00
2017-12-16T05:14:34.336Z,4.00
2017-12-16T05:15:34.353Z,4.00
2017-12-16T05:16:34.367Z,4.00
2017-12-16T05:17:34.383Z,4.00
2017-12-16T05:18:34.399Z,4.00
2017-12-16T05:19:34.414Z,4.00
2017-12-16T05:20:34.428Z,8.00
2017-12-16T05:21:34.444Z,4.00
2017-12-16T05:22:34.460Z,4.00
2017-12-16T05:23:34.478Z,4.00
2017-12-16T05:24:34.490Z,8.00
2017-12-16T05:25:34.505Z,4.00
2017-12-16T05:26:34.520Z,4.00
2017-12-16T05:27:34.540Z,4.00
2017-12-16T05:28:34.550Z,4.00
2017-12-16T05:29:34.566Z,4.00
2017-12-16T05:30:34.582Z,4.00
2017-12-16T05:31:34.598Z,4.00
2017-12-16T05:32:34.612Z,4.00
2017-12-16T05:33:34.627Z,4.00
2017-12-16T05:34:34.642Z,4.00
2017-12-16T05:35:34.657Z,4.00
2017-12-16T05:36:34.673Z,4.00
2017-12-16T05:37:34.688Z,4.00
2017-12-16T05:38:34.702Z,4.00
2017-12-16T05:39:34.719Z,4.00
2017-12-16T05:40:34.733Z,4.00
2017-12-16T05:41:34.748Z,4.00
2017-12-16T05:42:34.764Z,4.00
2017-12-16T05:43:34.778Z,4.00
2017-12-16T05:44:34.798Z,4.00
2017-12-16T05:45:34.809Z,4.00
2017-12-16T05:46:34.824Z,8.00
2017-12-16T05:47:34.839Z,4.00
2017-12-16T05:48:34.854Z,4.00
2017-12-16T05:49:34.868Z,4.00
2017-12-16T05:50:34.891Z,4.00
2017-12-16T05:51:34.951Z,4.00
2017-12-16T05:52:34.914Z,4.00
2017-12-16T05:53:34.930Z,4.00
2017-12-16T05:54:34.945Z,4.00
2017-12-16T05:55:34.960Z,4.00
2017-12-16T05:56:34.974Z,4.00
2017-12-16T05:57:34.990Z,4.00
2017-12-16T05:58:35.006Z,4.00
2017-12-16T05:59:35.022Z,4.00
2017-12-16T06:00:35.035Z,4.00
2017-12-16T06:01:35.052Z,4.00
2017-12-16T06:02:35.116Z,4.00
2017-12-16T06:03:35.082Z,4.00
2017-12-16T06:04:35.097Z,4.00
2017-12-16T06:05:35.112Z,4.00
2017-12-16T06:06:35.127Z,4.00
2017-12-16T06:07:35.147Z,4.00
2017-12-16T06:08:35.157Z,4.00
2017-12-16T06:09:35.172Z,4.00
2017-12-16T06:10:35.189Z,4.00
2017-12-16T06:11:35.205Z,4.00
2017-12-16T06:12:35.220Z,4.00
2017-12-16T06:13:35.238Z,4.00
2017-12-16T06:14:35.299Z,4.00
2017-12-16T06:15:35.266Z,4.00
2017-12-16T06:16:35.279Z,4.00
2017-12-16T06:17:35.295Z,4.00
2017-12-16T06:18:35.312Z,4.00
2017-12-16T06:19:35.377Z,4.00
2017-12-16T06:20:35.340Z,4.00
2017-12-16T06:21:35.356Z,8.00
2017-12-16T06:22:35.372Z,8.00
2017-12-16T06:23:35.386Z,8.00
2017-12-16T06:24:35.401Z,8.00
2017-12-16T06:25:35.417Z,8.00
2017-12-16T06:26:35.432Z,8.00
2017-12-16T06:27:35.449Z,8.00
2017-12-16T06:28:35.463Z,8.00
2017-12-16T06:29:35.528Z,8.00
2017-12-16T06:30:35.493Z,8.00
2017-12-16T06:31:35.508Z,8.00
2017-12-16T06:32:35.522Z,8.00
2017-12-16T06:33:35.539Z,8.00
2017-12-16T06:34:35.705Z,8.00
2017-12-16T06:35:35.569Z,8.00
2017-12-16T06:36:35.584Z,8.00
2017-12-16T06:37:35.599Z,8.00
2017-12-16T06:38:35.615Z,8.00
2017-12-16T06:39:35.629Z,8.00
2017-12-16T06:40:35.645Z,4.00
2017-12-16T06:41:35.660Z,8.00
2017-12-16T06:42:35.675Z,8.00
2017-12-16T06:43:35.691Z,8.00
2017-12-16T06:44:35.705Z,8.00
2017-12-16T06:45:35.722Z,8.00
2017-12-16T06:46:35.736Z,8.00
2017-12-16T06:47:35.754Z,8.00
2017-12-16T06:48:35.767Z,8.00
2017-12-16T06:49:35.783Z,8.00
2017-12-16T06:50:35.796Z,8.00
2017-12-16T06:51:35.812Z,8.00
2017-12-16T06:52:35.830Z,8.00
2017-12-16T06:53:35.842Z,8.00
2017-12-16T06:54:35.857Z,8.00
2017-12-16T06:55:35.931Z,4.00
2017-12-16T06:56:35.888Z,4.00
2017-12-16T06:57:35.902Z,4.00
2017-12-16T06:58:35.918Z,8.00
2017-12-16T06:59:35.939Z,8.00
2017-12-16T07:00:35.948Z,8.00
2017-12-16T07:01:35.962Z,8.00
2017-12-16T07:02:35.978Z,8.00
2017-12-16T07:03:35.993Z,12.00
2017-12-16T07:04:36.007Z,8.00
2017-12-16T07:05:36.022Z,8.00
2017-12-16T07:06:36.036Z,12.00
2017-12-16T07:07:36.052Z,12.00
2017-12-16T07:08:36.066Z,16.00
2017-12-16T07:09:36.081Z,16.00
2017-12-16T07:10:36.099Z,16.00
2017-12-16T07:11:36.111Z,12.00
2017-12-16T07:12:36.126Z,16.00
2017-12-16T07:13:36.140Z,16.00
2017-12-16T07:14:36.155Z,20.00
2017-12-16T07:15:36.172Z,24.00
2017-12-16T07:16:36.186Z,24.00
2017-12-16T07:17:36.250Z,28.00
2017-12-16T07:18:36.216Z,32.00
2017-12-16T07:19:36.231Z,36.00
2017-12-16T07:20:36.246Z,44.00
2017-12-16T07:21:36.260Z,48.00
2017-12-16T07:22:36.274Z,52.00
2017-12-16T07:23:36.290Z,60.00
2017-12-16T07:24:36.363Z,68.00
2017-12-16T07:25:36.318Z,72.00
2017-12-16T07:26:36.338Z,80.00
2017-12-16T07:27:36.351Z,88.00
2017-12-16T07:28:36.363Z,96.00
2017-12-16T07:29:36.382Z,104.00
2017-12-16T07:30:36.394Z,112.00
2017-12-16T07:31:36.409Z,124.00
2017-12-16T07:32:36.423Z,128.00
2017-12-16T07:33:36.438Z,144.00
2017-12-16T07:34:36.454Z,156.00
2017-12-16T07:35:36.468Z,164.00
2017-12-16T07:36:36.483Z,172.00
2017-12-16T07:37:36.499Z,188.00
2017-12-16T07:38:36.513Z,200.00
2017-12-16T07:39:36.530Z,212.00
2017-12-16T07:40:36.542Z,228.00
2017-12-16T07:41:36.558Z,240.00
2017-12-16T07:42:36.573Z,256.00
2017-12-16T07:43:36.588Z,272.00
2017-12-16T07:44:36.607Z,288.00
2017-12-16T07:45:36.618Z,304.00
2017-12-16T07:46:36.633Z,320.00
2017-12-16T07:47:36.647Z,340.00
2017-12-16T07:48:36.661Z,356.00
2017-12-16T07:49:36.676Z,372.00
2017-12-16T07:50:36.693Z,388.00
2017-12-16T07:51:36.708Z,400.00
2017-12-16T07:52:36.720Z,416.00
2017-12-16T07:53:36.736Z,432.00
2017-12-16T07:54:36.752Z,452.00
2017-12-16T07:55:36.768Z,472.00
2017-12-16T07:56:36.780Z,492.00
2017-12-16T07:57:36.796Z,512.00
2017-12-16T07:58:36.812Z,532.00
2017-12-16T07:59:36.826Z,552.00
2017-12-16T08:00:36.840Z,580.00
2017-12-16T08:01:36.855Z,604.00
2017-12-16T08:02:36.870Z,632.00
2017-12-16T08:03:36.889Z,660.00
2017-12-16T08:04:36.901Z,684.00
2017-12-16T08:05:36.915Z,700.00
2017-12-16T08:06:36.931Z,720.00
2017-12-16T08:07:36.945Z,748.00
2017-12-16T08:08:36.960Z,776.00
2017-12-16T08:09:36.975Z,800.00
2017-12-16T08:10:36.991Z,816.00
2017-12-16T08:11:37.006Z,832.00
2017-12-16T08:12:37.021Z,872.00
2017-12-16T08:13:37.035Z,920.00
2017-12-16T08:14:37.050Z,964.00
2017-12-16T08:15:37.066Z,1000.00
2017-12-16T08:16:37.081Z,1008.00
2017-12-16T08:17:37.095Z,1024.00
2017-12-16T08:18:37.110Z,1032.00
2017-12-16T08:19:37.126Z,1044.00
2017-12-16T08:20:37.140Z,1064.00
2017-12-16T08:21:37.156Z,1072.00
2017-12-16T08:22:37.171Z,1084.00
2017-12-16T08:23:37.186Z,1104.00
2017-12-16T08:24:37.200Z,1100.00
2017-12-16T08:25:37.217Z,1084.00
2017-12-16T08:26:37.231Z,1080.00
2017-12-16T08:27:37.246Z,1076.00
2017-12-16T08:28:37.260Z,1084.00
2017-12-16T08:29:37.276Z,1108.00
2017-12-16T08:30:37.292Z,1144.00
2017-12-16T08:31:37.306Z,1184.00
2017-12-16T08:32:37.322Z,1236.00
2017-12-16T08:33:37.360Z,1264.00
2017-12-16T08:34:37.352Z,1340.00
2017-12-16T08:35:37.368Z,1388.00
2017-12-16T08:36:37.382Z,1408.00
2017-12-16T08:37:37.396Z,1444.00
2017-12-16T08:38:37.413Z,1456.00
2017-12-16T08:39:37.528Z,1420.00
2017-12-16T08:40:37.442Z,1352.00
2017-12-16T08:41:37.457Z,1412.00
2017-12-16T08:42:37.472Z,1428.00
2017-12-16T08:43:37.489Z,1440.00
2017-12-16T08:44:37.503Z,1440.00
2017-12-16T08:45:37.519Z,1448.00
2017-12-16T08:46:37.535Z,1456.00
2017-12-16T08:47:37.549Z,1492.00
2017-12-16T08:48:37.567Z,1500.00
2017-12-16T08:49:37.579Z,1532.00
2017-12-16T08:50:37.594Z,1560.00
2017-12-16T08:51:37.611Z,1588.00
2017-12-16T08:52:37.626Z,1616.00
2017-12-16T08:53:37.640Z,1664.00
2017-12-16T08:54:37.656Z,1688.00
2017-12-16T08:55:37.671Z,1704.00
2017-12-16T08:56:37.686Z,1728.00
2017-12-16T08:57:37.702Z,1780.00
2017-12-16T08:58:37.718Z,1836.00
2017-12-16T08:59:37.732Z,1908.00
2017-12-16T09:00:37.747Z,1964.00
2017-12-16T09:01:37.762Z,1964.00
2017-12-16T09:02:37.779Z,2100.00
2017-12-16T09:03:37.794Z,2188.00
2017-12-16T09:04:37.809Z,2212.00
2017-12-16T09:05:37.851Z,2204.00
2017-12-16T09:06:37.838Z,2188.00
2017-12-16T09:07:37.855Z,2164.00
2017-12-16T09:08:37.869Z,2136.00
2017-12-16T09:09:37.884Z,2084.00
2017-12-16T09:10:37.902Z,2056.00
2017-12-16T09:11:37.918Z,2076.00
2017-12-16T09:12:37.934Z,2072.00
2017-12-16T09:13:37.996Z,2064.00
2017-12-16T09:14:37.962Z,2096.00
2017-12-16T09:15:37.977Z,2116.00
2017-12-16T09:16:37.991Z,2156.00
2017-12-16T09:17:38.007Z,2196.00
2017-12-16T09:18:38.023Z,2240.00
2017-12-16T09:19:38.040Z,2256.00
2017-12-16T09:20:38.056Z,2276.00
2017-12-16T09:21:38.070Z,2272.00
2017-12-16T09:22:38.085Z,2284.00
2017-12-16T09:23:38.100Z,2252.00
2017-12-16T09:24:38.116Z,2236.00
2017-12-16T09:25:38.131Z,2220.00
2017-12-16T09:26:38.146Z,1868.00
2017-12-16T09:27:38.167Z,2192.00
2017-12-16T09:28:38.229Z,2232.00
2017-12-16T09:29:38.193Z,2272.00
2017-12-16T09:30:38.213Z,2304.00
2017-12-16T09:31:38.227Z,2332.00
2017-12-16T09:32:38.240Z,2356.00
2017-12-16T09:33:38.255Z,2408.00
2017-12-16T09:34:38.271Z,2476.00
2017-12-16T09:35:38.287Z,2564.00
2017-12-16T09:36:38.303Z,2624.00
2017-12-16T09:37:38.317Z,2696.00
2017-12-16T09:38:38.384Z,2768.00
2017-12-16T09:39:38.350Z,2820.00
2017-12-16T09:40:38.364Z,2892.00
2017-12-16T09:41:38.380Z,2940.00
2017-12-16T09:42:38.394Z,2936.00
2017-12-16T09:43:38.411Z,2960.00
2017-12-16T09:44:38.426Z,2408.00
2017-12-16T09:45:38.442Z,2412.00
2017-12-16T09:46:38.459Z,2580.00
2017-12-16T09:47:38.474Z,2704.00
2017-12-16T09:48:38.490Z,2888.00
2017-12-16T09:49:38.503Z,3196.00
2017-12-16T09:50:38.522Z,8444.00
2017-12-16T09:51:38.687Z,7136.00
2017-12-16T09:52:38.553Z,6008.00
2017-12-16T09:53:38.569Z,4044.00
2017-12-16T09:54:38.585Z,3524.00
2017-12-16T09:55:38.601Z,3868.00
2017-12-16T09:56:38.614Z,6368.00
2017-12-16T09:57:38.633Z,7676.00
2017-12-16T09:58:38.649Z,7804.00
2017-12-16T09:59:38.666Z,10172.00
2017-12-16T10:00:38.682Z,9932.00
2017-12-16T10:01:38.697Z,6720.00
2017-12-16T10:02:38.718Z,3604.00
2017-12-16T10:03:38.731Z,3156.00
2017-12-16T10:04:38.745Z,2988.00
2017-12-16T10:05:38.763Z,2460.00
2017-12-16T10:06:38.779Z,2380.00
2017-12-16T10:07:38.796Z,6084.00
2017-12-16T10:08:38.812Z,2012.00
2017-12-16T10:09:38.828Z,2128.00
2017-12-16T10:10:38.844Z,2240.00
2017-12-16T10:11:38.910Z,2224.00
2017-12-16T10:12:38.878Z,2148.00
2017-12-16T10:13:38.894Z,2164.00
2017-12-16T10:14:38.909Z,3020.00
2017-12-16T10:15:38.924Z,3196.00
2017-12-16T10:16:38.941Z,2492.00
2017-12-16T10:17:38.957Z,2024.00
2017-12-16T10:18:38.973Z,2276.00
2017-12-16T10:19:38.991Z,2524.00
2017-12-16T10:20:39.006Z,2028.00
2017-12-16T10:21:39.171Z,2004.00
2017-12-16T10:22:39.036Z,2060.00
2017-12-16T10:23:39.053Z,2180.00
2017-12-16T10:24:39.068Z,2344.00
2017-12-16T10:25:39.135Z,2488.00
2017-12-16T10:26:39.101Z,2640.00
2017-12-16T10:27:39.117Z,2772.00
2017-12-16T10:28:39.139Z,2880.00
2017-12-16T10:29:39.148Z,2992.00
2017-12-16T10:30:39.164Z,3132.00
2017-12-16T10:31:39.181Z,3136.00
2017-12-16T10:32:39.196Z,2752.00
2017-12-16T10:33:39.212Z,2540.00
2017-12-16T10:34:39.291Z,2360.00
2017-12-16T10:35:39.246Z,2320.00
2017-12-16T10:36:39.261Z,2324.00
2017-12-16T10:37:39.277Z,2404.00
2017-12-16T10:38:39.294Z,2460.00
2017-12-16T10:39:39.310Z,2604.00
2017-12-16T10:40:39.325Z,2760.00
2017-12-16T10:41:39.393Z,2788.00
2017-12-16T10:42:39.358Z,2804.00
2017-12-16T10:43:39.374Z,2828.00
2017-12-16T10:44:39.389Z,2904.00
2017-12-16T10:45:39.406Z,2864.00
2017-12-16T10:46:39.422Z,2648.00
2017-12-16T10:47:39.438Z,2352.00
2017-12-16T10:48:39.456Z,2244.00
2017-12-16T10:49:39.475Z,2316.00
2017-12-16T10:50:39.488Z,2356.00
2017-12-16T10:51:39.504Z,2316.00
2017-12-16T10:52:39.520Z,2228.00
2017-12-16T10:53:39.537Z,2220.00
2017-12-16T10:54:39.553Z,2284.00
2017-12-16T10:55:39.569Z,2260.00
2017-12-16T10:56:39.585Z,2240.00
2017-12-16T10:57:39.607Z,2152.00
2017-12-16T10:58:39.618Z,2084.00
2017-12-16T10:59:39.635Z,2128.00
2017-12-16T11:00:39.650Z,2228.00
2017-12-16T11:01:39.666Z,2400.00
2017-12-16T11:02:39.684Z,2588.00
2017-12-16T11:03:39.700Z,2732.00
2017-12-16T11:04:39.715Z,2800.00
2017-12-16T11:05:39.731Z,2812.00
2017-12-16T11:06:39.749Z,3076.00
2017-12-16T11:07:39.765Z,3244.00
2017-12-16T11:08:39.781Z,2932.00
2017-12-16T11:09:39.799Z,3256.00
2017-12-16T11:10:39.817Z,3728.00
2017-12-16T11:11:39.830Z,3268.00
2017-12-16T11:12:39.846Z,2752.00
2017-12-16T11:13:39.863Z,2408.00
2017-12-16T11:14:39.879Z,2744.00
2017-12-16T11:15:39.896Z,3348.00
2017-12-16T11:16:39.913Z,3064.00
2017-12-16T11:17:39.929Z,3600.00
2017-12-16T11:18:39.947Z,3756.00
2017-12-16T11:19:39.964Z,3772.00
2017-12-16T11:20:39.979Z,3684.00
2017-12-16T11:21:39.994Z,3720.00
2017-12-16T11:22:40.013Z,3352.00
2017-12-16T11:23:40.029Z,3196.00
2017-12-16T11:24:40.044Z,2564.00
2017-12-16T11:25:40.061Z,2364.00
2017-12-16T11:26:40.077Z,2164.00
2017-12-16T11:27:40.095Z,2256.00
2017-12-16T11:28:40.112Z,2292.00
2017-12-16T11:29:40.129Z,2476.00
2017-12-16T11:30:40.146Z,2756.00
2017-12-16T11:31:40.163Z,2996.00
2017-12-16T11:32:40.178Z,3096.00
2017-12-16T11:33:40.194Z,3100.00
2017-12-16T11:34:40.212Z,3320.00
2017-12-16T11:35:40.230Z,3304.00
2017-12-16T11:36:40.245Z,2744.00
2017-12-16T11:37:40.261Z,2496.00
2017-12-16T11:38:40.330Z,2380.00
2017-12-16T11:39:40.295Z,2672.00
2017-12-16T11:40:40.311Z,2192.00
2017-12-16T11:41:40.327Z,2244.00
2017-12-16T11:42:40.344Z,2664.00
2017-12-16T11:43:40.362Z,2056.00
2017-12-16T11:44:40.378Z,2284.00
2017-12-16T11:45:40.396Z,2232.00
2017-12-16T11:46:40.412Z,2548.00
2017-12-16T11:47:40.429Z,2748.00
2017-12-16T11:48:40.445Z,2264.00
2017-12-16T11:49:40.461Z,2264.00
2017-12-16T11:50:40.527Z,2228.00
2017-12-16T11:51:40.494Z,2244.00
2017-12-16T11:52:40.510Z,2112.00
2017-12-16T11:53:40.526Z,2400.00
2017-12-16T11:54:40.545Z,2468.00
2017-12-16T11:55:40.611Z,3128.00
2017-12-16T11:56:40.728Z,3076.00
2017-12-16T11:57:40.593Z,2908.00
2017-12-16T11:58:40.609Z,2988.00
2017-12-16T11:59:40.626Z,3064.00
2017-12-16T12:00:40.642Z,3028.00
2017-12-16T12:01:40.659Z,2980.00
2017-12-16T12:02:40.675Z,2996.00
2017-12-16T12:03:40.693Z,2932.00
2017-12-16T12:04:40.709Z,2632.00
2017-12-16T12:05:40.725Z,2440.00
2017-12-16T12:06:40.794Z,2116.00
2017-12-16T12:07:40.758Z,1868.00
2017-12-16T12:08:40.774Z,2016.00
2017-12-16T12:09:40.792Z,2484.00
2017-12-16T12:10:40.808Z,2656.00
2017-12-16T12:11:40.889Z,2444.00
2017-12-16T12:12:40.840Z,2220.00
2017-12-16T12:13:40.859Z,2184.00
2017-12-16T12:14:40.875Z,2376.00
2017-12-16T12:15:40.892Z,2492.00
2017-12-16T12:16:40.908Z,2632.00
2017-12-16T12:17:40.925Z,2384.00
2017-12-16T12:18:40.942Z,2036.00
2017-12-16T12:19:40.959Z,2008.00
2017-12-16T12:20:40.973Z,2268.00
2017-12-16T12:21:40.989Z,1960.00
2017-12-16T12:22:41.056Z,2436.00
2017-12-16T12:23:41.023Z,1996.00
2017-12-16T12:24:41.044Z,2468.00
2017-12-16T12:25:41.056Z,2648.00
2017-12-16T12:26:41.073Z,2476.00
2017-12-16T12:27:41.089Z,3216.00
2017-12-16T12:28:41.110Z,3132.00
2017-12-16T12:29:41.120Z,2132.00
2017-12-16T12:30:41.138Z,2212.00
2017-12-16T12:31:41.154Z,2988.00
2017-12-16T12:32:41.168Z,2592.00
2017-12-16T12:33:41.186Z,3236.00
2017-12-16T12:34:41.203Z,2496.00
2017-12-16T12:35:41.220Z,2332.00
2017-12-16T12:36:41.234Z,2032.00
2017-12-16T12:37:41.250Z,2004.00
2017-12-16T12:38:41.267Z,2212.00
2017-12-16T12:39:41.284Z,2168.00
2017-12-16T12:40:41.300Z,2128.00
2017-12-16T12:41:41.316Z,2200.00
2017-12-16T12:42:41.332Z,2208.00
2017-12-16T12:43:41.349Z,2404.00
2017-12-16T12:44:41.365Z,2332.00
2017-12-16T12:45:41.381Z,2224.00
2017-12-16T12:46:41.397Z,2260.00
2017-12-16T12:47:41.415Z,2108.00